createdAt,value
2019-02-19T00:00:05.334Z,70.61
2019-02-19T00:01:09.472Z,70.68
2019-02-19T00:02:13.723Z,70.75
2019-02-19T00:03:17.952Z,70.33
2019-02-19T00:04:22.157Z,70.35
2019-02-19T00:05:26.239Z,70.71
2019-02-19T00:06:30.422Z,70.97
2019-02-19T00:07:34.593Z,71.33
2019-02-19T00:08:38.722Z,71.76
2019-02-19T00:09:42.966Z,71.97
2019-02-19T00:10:47.034Z,72.10
2019-02-19T00:11:51.290Z,72.12
2019-02-19T00:12:55.514Z,71.94
2019-02-19T00:13:59.689Z,72.14
2019-02-19T00:15:08.346Z,72.06
2019-02-19T00:16:08.153Z,72.06
2019-02-19T00:17:12.298Z,72.10
2019-02-19T00:18:16.479Z,72.13
2019-02-19T00:19:20.717Z,72.19
2019-02-19T00:20:24.929Z,72.29
2019-02-19T00:21:29.138Z,72.61
2019-02-19T00:22:33.220Z,72.60
2019-02-19T00:23:37.362Z,72.43
2019-02-19T00:24:41.505Z,72.63
2019-02-19T00:25:45.689Z,72.60
2019-02-19T00:26:49.899Z,72.71
2019-02-19T00:27:54.103Z,72.68
2019-02-19T00:28:58.344Z,73.14
2019-02-19T00:30:02.554Z,72.94
2019-02-19T00:31:06.756Z,72.86
2019-02-19T00:32:10.985Z,73.03
2019-02-19T00:33:15.088Z,73.08
2019-02-19T00:34:19.341Z,73.29
2019-02-19T00:35:23.546Z,73.27
2019-02-19T00:36:27.706Z,73.21
2019-02-19T00:37:31.955Z,73.41
2019-02-19T00:38:36.148Z,73.36
2019-02-19T00:39:40.337Z,73.48
2019-02-19T00:40:44.513Z,73.20
2019-02-19T00:41:48.746Z,73.30
2019-02-19T00:42:52.944Z,73.13
2019-02-19T00:43:57.142Z,73.32
2019-02-19T00:45:01.303Z,73.38
2019-02-19T00:46:05.537Z,73.45
2019-02-19T00:47:09.736Z,73.40
2019-02-19T00:48:13.933Z,73.43
2019-02-19T00:49:18.131Z,73.33
2019-02-19T00:50:22.231Z,73.36
2019-02-19T00:51:26.450Z,73.34
2019-02-19T00:52:30.673Z,73.29
2019-02-19T00:53:34.865Z,73.32
2019-02-19T00:54:39.038Z,73.23
2019-02-19T00:55:43.127Z,73.23
2019-02-19T00:56:47.448Z,73.11
2019-02-19T00:57:51.679Z,73.04
2019-02-19T00:58:55.859Z,72.94
2019-02-19T01:00:00.002Z,73.29
2019-02-19T01:01:04.088Z,73.19
2019-02-19T01:02:08.357Z,73.29
2019-02-19T01:03:12.462Z,73.59
2019-02-19T01:04:16.612Z,73.71
2019-02-19T01:05:20.833Z,73.65
2019-02-19T01:06:25.047Z,73.42
2019-02-19T01:07:29.208Z,73.61
2019-02-19T01:08:33.380Z,73.69
2019-02-19T01:09:37.560Z,73.47
2019-02-19T01:10:41.745Z,73.40
2019-02-19T01:11:45.987Z,73.44
2019-02-19T01:12:50.221Z,73.32
2019-02-19T01:13:57.348Z,73.26
2019-02-19T01:15:00.538Z,73.34
2019-02-19T01:16:04.767Z,73.25
2019-02-19T01:17:09.031Z,73.55
2019-02-19T01:18:13.205Z,73.10
2019-02-19T01:19:17.356Z,73.02
2019-02-19T01:20:21.577Z,73.01
2019-02-19T01:21:25.812Z,72.93
2019-02-19T01:22:30.030Z,73.08
2019-02-19T01:23:34.189Z,72.95
2019-02-19T01:24:38.391Z,72.91
2019-02-19T01:25:42.486Z,72.92
2019-02-19T01:26:46.688Z,73.03
2019-02-19T01:27:50.927Z,72.75
2019-02-19T01:28:55.131Z,72.70
2019-02-19T01:29:59.325Z,72.68
2019-02-19T01:31:03.448Z,72.83
2019-02-19T01:32:07.699Z,72.98
2019-02-19T01:33:11.921Z,73.08
2019-02-19T01:34:16.059Z,72.92
2019-02-19T01:35:20.293Z,73.00
2019-02-19T01:36:24.419Z,72.88
2019-02-19T01:37:28.607Z,72.92
2019-02-19T01:38:32.887Z,72.97
2019-02-19T01:39:37.092Z,72.93
2019-02-19T01:40:41.293Z,73.15
2019-02-19T01:41:45.487Z,72.98
2019-02-19T01:42:49.710Z,72.86
2019-02-19T01:43:53.783Z,72.99
2019-02-19T01:44:57.941Z,72.89
2019-02-19T01:46:02.210Z,72.95
2019-02-19T01:47:06.370Z,72.99
2019-02-19T01:48:10.591Z,72.98
2019-02-19T01:49:14.826Z,73.19
2019-02-19T01:50:19.000Z,73.22
2019-02-19T01:51:23.232Z,73.50
2019-02-19T01:52:27.439Z,73.47
2019-02-19T01:53:31.657Z,73.46
2019-02-19T01:54:35.806Z,73.66
2019-02-19T01:55:40.026Z,73.61
2019-02-19T01:56:44.211Z,73.73
2019-02-19T01:57:48.462Z,73.51
2019-02-19T01:58:52.666Z,73.37
2019-02-19T01:59:56.891Z,73.61
2019-02-19T02:01:01.024Z,73.33
2019-02-19T02:02:05.255Z,73.28
2019-02-19T02:03:09.587Z,73.42
2019-02-19T02:04:13.754Z,73.39
2019-02-19T02:05:17.981Z,73.24
2019-02-19T02:06:22.185Z,73.32
2019-02-19T02:07:26.379Z,73.17
2019-02-19T02:08:30.584Z,73.22
2019-02-19T02:09:34.780Z,73.22
2019-02-19T02:10:38.948Z,73.13
2019-02-19T02:11:43.071Z,73.09
2019-02-19T02:12:47.309Z,73.06
2019-02-19T02:13:51.442Z,73.13
2019-02-19T02:14:55.640Z,73.06
2019-02-19T02:15:59.776Z,72.96
2019-02-19T02:17:04.034Z,72.98
2019-02-19T02:18:08.221Z,73.14
2019-02-19T02:19:12.475Z,73.25
2019-02-19T02:20:16.734Z,73.02
2019-02-19T02:21:20.903Z,73.13
2019-02-19T02:22:25.111Z,72.88
2019-02-19T02:23:29.662Z,73.22
2019-02-19T02:24:33.627Z,73.48
2019-02-19T02:25:37.878Z,73.11
2019-02-19T02:26:42.918Z,73.12
2019-02-19T02:27:46.762Z,73.05
2019-02-19T02:28:51.015Z,73.29
2019-02-19T02:29:55.116Z,73.27
2019-02-19T02:30:59.390Z,73.27
2019-02-19T02:32:03.606Z,73.12
2019-02-19T02:33:07.734Z,73.03
2019-02-19T02:34:11.921Z,73.02
2019-02-19T02:35:16.165Z,73.18
2019-02-19T02:36:20.356Z,73.24
2019-02-19T02:37:24.486Z,72.97
2019-02-19T02:38:28.703Z,72.96
2019-02-19T02:39:32.927Z,73.07
2019-02-19T02:40:37.167Z,72.95
2019-02-19T02:41:41.383Z,72.96
2019-02-19T02:42:45.604Z,73.15
2019-02-19T02:43:49.852Z,73.03
2019-02-19T02:44:54.052Z,72.86
2019-02-19T02:45:58.187Z,73.08
2019-02-19T02:47:02.389Z,72.92
2019-02-19T02:48:06.539Z,72.99
2019-02-19T02:49:10.860Z,72.91
2019-02-19T02:50:15.081Z,72.86
2019-02-19T02:51:19.314Z,73.09
2019-02-19T02:52:23.537Z,73.02
2019-02-19T02:53:27.661Z,73.10
2019-02-19T02:54:31.960Z,72.90
2019-02-19T02:55:36.069Z,72.93
2019-02-19T02:56:40.292Z,72.90
2019-02-19T02:57:44.511Z,72.86
2019-02-19T02:58:48.620Z,72.87
2019-02-19T02:59:52.819Z,73.05
2019-02-19T03:00:57.083Z,72.96
2019-02-19T03:02:01.324Z,72.96
2019-02-19T03:03:05.530Z,73.25
2019-02-19T03:04:09.582Z,73.00
2019-02-19T03:05:13.899Z,72.98
2019-02-19T03:06:18.116Z,73.10
2019-02-19T03:07:22.348Z,73.11
2019-02-19T03:08:26.506Z,73.33
2019-02-19T03:09:30.752Z,73.37
2019-02-19T03:10:34.966Z,73.18
2019-02-19T03:11:39.127Z,73.23
2019-02-19T03:12:43.320Z,73.42
2019-02-19T03:13:47.582Z,73.56
2019-02-19T03:14:51.689Z,73.50
2019-02-19T03:16:02.108Z,73.61
2019-02-19T03:17:00.104Z,73.58
2019-02-19T03:18:04.337Z,73.76
2019-02-19T03:19:08.473Z,73.78
2019-02-19T03:20:12.646Z,73.55
2019-02-19T03:21:16.833Z,73.58
2019-02-19T03:22:21.079Z,73.80
2019-02-19T03:23:25.129Z,73.72
2019-02-19T03:24:29.414Z,73.69
2019-02-19T03:25:33.648Z,73.81
2019-02-19T03:26:37.842Z,73.62
2019-02-19T03:27:42.057Z,73.88
2019-02-19T03:28:46.281Z,73.72
2019-02-19T03:29:50.481Z,73.65
2019-02-19T03:30:54.706Z,73.64
2019-02-19T03:31:58.912Z,73.63
2019-02-19T03:33:03.084Z,73.64
2019-02-19T03:34:07.326Z,73.81
2019-02-19T03:35:11.480Z,73.81
2019-02-19T03:36:15.670Z,73.85
2019-02-19T03:37:19.855Z,73.60
2019-02-19T03:38:24.093Z,73.59
2019-02-19T03:39:28.218Z,73.57
2019-02-19T03:40:32.523Z,73.80
2019-02-19T03:41:36.727Z,73.83
2019-02-19T03:42:40.943Z,73.64
2019-02-19T03:43:45.158Z,73.58
2019-02-19T03:44:49.369Z,73.77
2019-02-19T03:45:53.500Z,73.62
2019-02-19T03:46:57.728Z,73.59
2019-02-19T03:48:01.944Z,73.64
2019-02-19T03:49:06.092Z,73.52
2019-02-19T03:50:10.303Z,73.45
2019-02-19T03:51:14.501Z,73.57
2019-02-19T03:52:18.735Z,73.55
2019-02-19T03:53:22.903Z,73.87
2019-02-19T03:54:27.061Z,73.78
2019-02-19T03:55:31.204Z,73.70
2019-02-19T03:56:35.511Z,73.90
2019-02-19T03:57:39.686Z,73.74
2019-02-19T03:58:43.873Z,73.84
2019-02-19T03:59:48.082Z,73.80
2019-02-19T04:00:52.280Z,73.67
2019-02-19T04:01:56.411Z,73.66
2019-02-19T04:03:00.662Z,73.68
2019-02-19T04:04:04.821Z,74.04
2019-02-19T04:05:08.960Z,73.86
2019-02-19T04:06:13.227Z,73.99
2019-02-19T04:07:17.427Z,73.85
2019-02-19T04:08:21.658Z,73.98
2019-02-19T04:09:25.749Z,73.87
2019-02-19T04:10:29.878Z,73.98
2019-02-19T04:11:34.233Z,74.19
2019-02-19T04:12:38.395Z,74.22
2019-02-19T04:13:42.608Z,73.96
2019-02-19T04:14:46.802Z,74.07
2019-02-19T04:15:51.057Z,74.37
2019-02-19T04:16:55.298Z,74.22
2019-02-19T04:17:59.416Z,74.23
2019-02-19T04:19:03.549Z,73.98
2019-02-19T04:20:07.726Z,74.02
2019-02-19T04:21:11.931Z,74.13
2019-02-19T04:22:16.210Z,74.33
2019-02-19T04:23:20.436Z,74.06
2019-02-19T04:24:24.540Z,74.09
2019-02-19T04:25:28.788Z,74.46
2019-02-19T04:26:33.020Z,74.15
2019-02-19T04:27:37.209Z,74.11
2019-02-19T04:28:41.435Z,74.18
2019-02-19T04:29:45.632Z,74.13
2019-02-19T04:30:49.864Z,74.54
2019-02-19T04:31:54.074Z,74.50
2019-02-19T04:32:58.248Z,74.35
2019-02-19T04:34:02.455Z,74.27
2019-02-19T04:35:06.563Z,74.14
2019-02-19T04:36:10.862Z,74.33
2019-02-19T04:37:15.094Z,74.50
2019-02-19T04:38:19.294Z,74.28
2019-02-19T04:39:23.499Z,74.14
2019-02-19T04:40:27.726Z,74.09
2019-02-19T04:41:31.843Z,73.95
2019-02-19T04:42:36.028Z,73.97
2019-02-19T04:43:40.271Z,73.84
2019-02-19T04:44:44.444Z,73.83
2019-02-19T04:45:48.656Z,73.89
2019-02-19T04:46:52.859Z,73.88
2019-02-19T04:47:57.102Z,73.96
2019-02-19T04:49:01.213Z,73.93
2019-02-19T04:50:05.480Z,73.89
2019-02-19T04:51:09.668Z,73.87
2019-02-19T04:52:13.889Z,73.85
2019-02-19T04:53:17.966Z,73.87
2019-02-19T04:54:22.212Z,73.93
2019-02-19T04:55:26.440Z,74.12
2019-02-19T04:56:30.554Z,73.95
2019-02-19T04:57:34.811Z,74.07
2019-02-19T04:58:38.953Z,73.92
2019-02-19T04:59:43.091Z,73.80
2019-02-19T05:00:47.358Z,73.74
2019-02-19T05:01:51.482Z,73.80
2019-02-19T05:02:55.764Z,73.73
2019-02-19T05:03:59.971Z,73.93
2019-02-19T05:05:04.132Z,74.13
2019-02-19T05:06:08.335Z,73.89
2019-02-19T05:07:12.502Z,73.81
2019-02-19T05:08:16.736Z,73.93
2019-02-19T05:09:20.881Z,73.73
2019-02-19T05:10:25.126Z,74.00
2019-02-19T05:11:29.117Z,73.90
2019-02-19T05:12:33.385Z,73.86
2019-02-19T05:13:37.571Z,73.95
2019-02-19T05:14:41.824Z,73.78
2019-02-19T05:15:45.947Z,74.09
2019-02-19T05:16:50.102Z,74.04
2019-02-19T05:17:54.352Z,73.85
2019-02-19T05:18:58.587Z,73.88
2019-02-19T05:20:02.781Z,73.85
2019-02-19T05:21:06.995Z,73.93
2019-02-19T05:22:11.090Z,73.80
2019-02-19T05:23:15.348Z,73.81
2019-02-19T05:24:19.569Z,73.80
2019-02-19T05:25:23.766Z,73.85
2019-02-19T05:26:33.871Z,74.02
2019-02-19T05:27:36.670Z,73.93
2019-02-19T05:28:40.852Z,74.00
2019-02-19T05:29:45.079Z,74.12
2019-02-19T05:30:49.158Z,74.00
2019-02-19T05:31:53.442Z,74.04
2019-02-19T05:32:57.649Z,74.10
2019-02-19T05:34:01.814Z,74.29
2019-02-19T05:35:06.023Z,74.22
2019-02-19T05:36:10.271Z,74.44
2019-02-19T05:37:14.380Z,74.38
2019-02-19T05:38:18.620Z,74.41
2019-02-19T05:39:22.854Z,74.44
2019-02-19T05:40:26.967Z,75.12
2019-02-19T05:41:31.242Z,74.67
2019-02-19T05:42:35.423Z,74.62
2019-02-19T05:43:39.558Z,74.92
2019-02-19T05:44:43.690Z,75.22
2019-02-19T05:45:47.921Z,75.12
2019-02-19T05:46:52.118Z,74.94
2019-02-19T05:47:56.285Z,75.39
2019-02-19T05:49:00.507Z,75.22
2019-02-19T05:50:04.672Z,75.18
2019-02-19T05:51:08.799Z,74.89
2019-02-19T05:52:13.024Z,74.94
2019-02-19T05:53:17.439Z,75.11
2019-02-19T05:54:21.608Z,75.31
2019-02-19T05:55:25.780Z,74.87
2019-02-19T05:56:29.899Z,74.75
2019-02-19T05:57:34.180Z,74.78
2019-02-19T05:58:38.404Z,74.72
2019-02-19T05:59:42.629Z,74.61
2019-02-19T06:00:46.845Z,74.74
2019-02-19T06:01:51.034Z,74.81
2019-02-19T06:02:55.170Z,74.75
2019-02-19T06:03:59.413Z,74.82
2019-02-19T06:05:03.582Z,74.67
2019-02-19T06:06:07.782Z,74.51
2019-02-19T06:07:12.045Z,74.47
2019-02-19T06:08:16.168Z,74.80
2019-02-19T06:09:20.445Z,74.56
2019-02-19T06:10:24.626Z,74.57
2019-02-19T06:11:28.874Z,74.88
2019-02-19T06:12:33.080Z,74.48
2019-02-19T06:13:37.297Z,74.51
2019-02-19T06:14:41.562Z,74.49
2019-02-19T06:15:45.734Z,74.77
2019-02-19T06:16:58.109Z,74.91
2019-02-19T06:17:54.223Z,75.13
2019-02-19T06:18:58.434Z,74.76
2019-02-19T06:20:02.682Z,74.67
2019-02-19T06:21:06.938Z,74.73
2019-02-19T06:22:11.059Z,74.92
2019-02-19T06:23:15.146Z,74.92
2019-02-19T06:24:19.478Z,74.88
2019-02-19T06:25:23.717Z,75.07
2019-02-19T06:26:27.833Z,75.40
2019-02-19T06:27:32.057Z,75.13
2019-02-19T06:28:36.282Z,74.91
2019-02-19T06:29:40.501Z,75.25
2019-02-19T06:30:44.609Z,75.37
2019-02-19T06:31:48.904Z,75.36
2019-02-19T06:32:53.099Z,75.43
2019-02-19T06:33:57.209Z,75.59
2019-02-19T06:35:01.392Z,75.84
2019-02-19T06:36:05.616Z,75.72
2019-02-19T06:37:09.832Z,75.52
2019-02-19T06:38:14.038Z,75.50
2019-02-19T06:39:18.165Z,75.38
2019-02-19T06:40:22.421Z,75.67
2019-02-19T06:41:26.623Z,75.83
2019-02-19T06:42:30.838Z,76.48
2019-02-19T06:43:34.994Z,76.70
2019-02-19T06:44:39.227Z,77.17
2019-02-19T06:45:43.451Z,76.67
2019-02-19T06:46:47.648Z,76.38
2019-02-19T06:47:51.780Z,76.80
2019-02-19T06:48:55.879Z,76.45
2019-02-19T06:50:00.299Z,77.06
2019-02-19T06:51:04.358Z,78.30
2019-02-19T06:52:08.570Z,77.03
2019-02-19T06:53:13.037Z,77.16
2019-02-19T06:54:17.090Z,78.04
2019-02-19T06:55:21.284Z,77.27
2019-02-19T06:56:25.516Z,78.78
2019-02-19T06:57:29.601Z,77.67
2019-02-19T06:58:33.774Z,79.50
2019-02-19T06:59:37.826Z,78.64
2019-02-19T07:00:42.107Z,80.05
2019-02-19T07:01:46.296Z,80.42
2019-02-19T07:02:50.530Z,79.39
2019-02-19T07:03:54.658Z,79.42
2019-02-19T07:04:58.856Z,80.34
2019-02-19T07:06:03.101Z,79.82
2019-02-19T07:07:07.285Z,80.63
2019-02-19T07:08:11.542Z,80.13
2019-02-19T07:09:15.736Z,81.89
2019-02-19T07:10:19.873Z,82.34
2019-02-19T07:11:24.028Z,81.91
2019-02-19T07:12:28.308Z,81.91
2019-02-19T07:13:32.449Z,82.00
2019-02-19T07:14:36.602Z,82.11
2019-02-19T07:15:40.888Z,82.17
2019-02-19T07:16:45.079Z,81.71
2019-02-19T07:17:49.233Z,81.25
2019-02-19T07:18:53.500Z,81.36
2019-02-19T07:19:57.706Z,81.73
2019-02-19T07:21:01.865Z,82.41
2019-02-19T07:22:06.107Z,81.46
2019-02-19T07:23:10.307Z,81.43
2019-02-19T07:24:14.498Z,81.88
2019-02-19T07:25:18.639Z,81.45
2019-02-19T07:26:22.814Z,82.33
2019-02-19T07:27:27.068Z,81.72
2019-02-19T07:28:31.219Z,81.34
2019-02-19T07:29:35.468Z,82.09
2019-02-19T07:30:39.687Z,82.39
2019-02-19T07:31:43.793Z,82.23
2019-02-19T07:32:48.026Z,82.44
2019-02-19T07:33:52.292Z,81.55
2019-02-19T07:34:56.490Z,81.05
2019-02-19T07:36:00.651Z,80.84
2019-02-19T07:37:04.821Z,80.96
2019-02-19T07:38:09.092Z,80.69
2019-02-19T07:39:13.321Z,80.47
2019-02-19T07:40:17.622Z,80.54
2019-02-19T07:41:21.767Z,82.02
2019-02-19T07:42:25.974Z,81.06
2019-02-19T07:43:30.133Z,80.71
2019-02-19T07:44:34.388Z,80.62
2019-02-19T07:45:38.612Z,80.42
2019-02-19T07:46:42.843Z,81.09
2019-02-19T07:47:47.022Z,81.08
2019-02-19T07:48:51.173Z,81.26
2019-02-19T07:49:55.448Z,81.13
2019-02-19T07:50:59.714Z,80.75
2019-02-19T07:52:03.857Z,80.41
2019-02-19T07:53:08.097Z,80.25
2019-02-19T07:54:12.155Z,80.12
2019-02-19T07:55:19.362Z,79.90
2019-02-19T07:56:22.510Z,79.83
2019-02-19T07:57:26.703Z,79.65
2019-02-19T07:58:30.971Z,79.96
2019-02-19T07:59:35.241Z,80.06
2019-02-19T08:00:39.351Z,79.93
2019-02-19T08:01:43.546Z,80.33
2019-02-19T08:02:47.826Z,80.40
2019-02-19T08:03:52.021Z,80.16
2019-02-19T08:04:56.099Z,80.01
2019-02-19T08:06:00.172Z,80.30
2019-02-19T08:07:04.546Z,80.29
2019-02-19T08:08:08.671Z,80.08
2019-02-19T08:09:12.899Z,79.78
2019-02-19T08:10:17.105Z,79.76
2019-02-19T08:11:21.234Z,80.39
2019-02-19T08:12:26.313Z,79.85
2019-02-19T08:13:29.769Z,80.23
2019-02-19T08:14:33.938Z,80.23
2019-02-19T08:15:38.140Z,80.16
2019-02-19T08:16:42.431Z,81.17
2019-02-19T08:17:46.670Z,80.62
2019-02-19T08:18:50.848Z,80.21
2019-02-19T08:19:55.118Z,79.98
2019-02-19T08:20:59.310Z,80.18
2019-02-19T08:22:03.464Z,80.53
2019-02-19T08:23:07.596Z,80.60
2019-02-19T08:24:11.755Z,81.32
2019-02-19T08:25:16.038Z,81.70
2019-02-19T08:26:20.104Z,81.74
2019-02-19T08:27:24.367Z,81.38
2019-02-19T08:28:28.633Z,81.83
2019-02-19T08:29:32.792Z,81.33
2019-02-19T08:30:36.960Z,82.23
2019-02-19T08:31:41.220Z,82.56
2019-02-19T08:32:45.441Z,82.19
2019-02-19T08:33:49.582Z,81.84
2019-02-19T08:34:53.748Z,81.59
2019-02-19T08:35:57.954Z,82.27
2019-02-19T08:37:02.270Z,82.27
2019-02-19T08:38:06.341Z,82.70
2019-02-19T08:39:10.663Z,82.58
2019-02-19T08:40:14.858Z,83.12
2019-02-19T08:41:19.049Z,82.51
2019-02-19T08:42:23.368Z,82.36
2019-02-19T08:43:27.560Z,82.07
2019-02-19T08:44:31.804Z,82.23
2019-02-19T08:45:35.940Z,82.58
2019-02-19T08:46:40.151Z,82.40
2019-02-19T08:47:44.357Z,81.99
2019-02-19T08:48:48.625Z,82.63
2019-02-19T08:49:52.822Z,83.11
2019-02-19T08:50:57.044Z,82.60
2019-02-19T08:52:01.315Z,82.25
2019-02-19T08:53:05.496Z,82.81
2019-02-19T08:54:09.747Z,83.02
2019-02-19T08:55:13.920Z,82.45
2019-02-19T08:56:18.064Z,82.48
2019-02-19T08:57:22.267Z,82.56
2019-02-19T08:58:26.550Z,82.87
2019-02-19T08:59:30.778Z,82.55
2019-02-19T09:00:34.946Z,83.08
2019-02-19T09:01:39.117Z,82.63
2019-02-19T09:02:43.328Z,82.93
2019-02-19T09:03:47.556Z,82.73
2019-02-19T09:04:51.762Z,82.75
2019-02-19T09:05:55.991Z,83.52
2019-02-19T09:07:00.142Z,82.81
2019-02-19T09:08:04.429Z,82.91
2019-02-19T09:09:08.562Z,82.84
2019-02-19T09:10:12.753Z,82.80
2019-02-19T09:11:17.035Z,83.47
2019-02-19T09:12:21.221Z,82.79
2019-02-19T09:13:25.421Z,82.78
2019-02-19T09:14:29.721Z,82.80
2019-02-19T09:15:33.835Z,82.38
2019-02-19T09:16:37.929Z,82.48
2019-02-19T09:17:51.356Z,82.59
2019-02-19T09:18:46.498Z,82.81
2019-02-19T09:19:50.752Z,83.00
2019-02-19T09:20:54.887Z,82.88
2019-02-19T09:21:59.099Z,83.27
2019-02-19T09:23:03.414Z,82.89
2019-02-19T09:24:09.760Z,83.12
2019-02-19T09:25:11.890Z,82.80
2019-02-19T09:26:16.086Z,82.48
2019-02-19T09:27:20.204Z,82.57
2019-02-19T09:28:24.391Z,82.36
2019-02-19T09:29:28.708Z,82.62
2019-02-19T09:30:32.964Z,82.42
2019-02-19T09:31:37.149Z,82.17
2019-02-19T09:32:41.349Z,82.11
2019-02-19T09:33:45.619Z,82.09
2019-02-19T09:34:49.774Z,82.28
2019-02-19T09:35:54.001Z,82.06
2019-02-19T09:36:58.204Z,82.09
2019-02-19T09:38:02.472Z,82.19
2019-02-19T09:39:09.675Z,82.53
2019-02-19T09:40:12.862Z,82.14
2019-02-19T09:41:17.125Z,82.07
2019-02-19T09:42:21.355Z,81.82
2019-02-19T09:43:25.609Z,81.84
2019-02-19T09:44:29.807Z,81.99
2019-02-19T09:45:34.019Z,81.94
2019-02-19T09:46:38.139Z,81.92
2019-02-19T09:47:42.451Z,82.35
2019-02-19T09:48:46.753Z,82.55
2019-02-19T09:49:51.022Z,82.20
2019-02-19T09:50:55.177Z,81.78
2019-02-19T09:51:59.398Z,81.78
2019-02-19T09:53:03.686Z,81.77
2019-02-19T09:54:07.840Z,81.76
2019-02-19T09:55:12.028Z,81.66
2019-02-19T09:56:16.223Z,81.91
2019-02-19T09:57:20.519Z,81.55
2019-02-19T09:58:24.708Z,81.60
2019-02-19T09:59:28.816Z,81.52
2019-02-19T10:00:33.040Z,81.36
2019-02-19T10:01:37.244Z,81.48
2019-02-19T10:02:41.530Z,81.51
2019-02-19T10:03:45.668Z,81.61
2019-02-19T10:04:49.846Z,81.36
2019-02-19T10:05:54.065Z,81.20
2019-02-19T10:06:58.300Z,81.19
2019-02-19T10:08:02.584Z,81.26
2019-02-19T10:09:06.726Z,81.24
2019-02-19T10:10:11.000Z,80.99
2019-02-19T10:11:15.139Z,80.95
2019-02-19T10:12:19.432Z,80.85
2019-02-19T10:13:25.133Z,81.11
2019-02-19T10:14:27.921Z,81.14
2019-02-19T10:15:32.075Z,81.16
2019-02-19T10:16:41.733Z,81.04
2019-02-19T10:17:40.438Z,80.93
2019-02-19T10:18:44.671Z,80.88
2019-02-19T10:19:48.895Z,80.86
2019-02-19T10:20:53.159Z,80.93
2019-02-19T10:21:57.418Z,81.18
2019-02-19T10:23:01.644Z,81.01
2019-02-19T10:24:05.864Z,81.06
2019-02-19T10:25:10.126Z,81.08
2019-02-19T10:26:14.376Z,81.03
2019-02-19T10:27:18.600Z,80.99
2019-02-19T10:28:22.832Z,80.88
2019-02-19T10:29:26.993Z,80.87
2019-02-19T10:30:31.177Z,80.80
2019-02-19T10:31:35.487Z,80.64
2019-02-19T10:32:39.736Z,80.63
2019-02-19T10:33:43.999Z,80.79
2019-02-19T10:34:48.146Z,80.82
2019-02-19T10:35:52.390Z,80.90
2019-02-19T10:36:56.654Z,80.91
2019-02-19T10:38:00.811Z,80.86
2019-02-19T10:39:05.125Z,80.74
2019-02-19T10:40:09.381Z,80.69
2019-02-19T10:41:13.621Z,80.62
2019-02-19T10:42:19.033Z,80.41
2019-02-19T10:43:23.458Z,80.37
2019-02-19T10:44:26.183Z,79.79
2019-02-19T10:45:30.482Z,79.84
2019-02-19T10:46:34.653Z,79.86
2019-02-19T10:47:38.932Z,79.76
2019-02-19T10:48:43.763Z,79.78
2019-02-19T10:49:47.425Z,79.65
2019-02-19T10:50:51.678Z,79.59
2019-02-19T10:51:55.814Z,79.56
2019-02-19T10:53:00.108Z,79.53
2019-02-19T10:54:04.321Z,79.56
2019-02-19T10:55:08.526Z,79.64
2019-02-19T10:56:12.745Z,79.60
2019-02-19T10:57:16.984Z,79.50
2019-02-19T10:58:23.171Z,79.49
2019-02-19T10:59:25.400Z,79.54
2019-02-19T11:00:29.655Z,79.47
2019-02-19T11:01:33.950Z,79.47
2019-02-19T11:02:38.107Z,79.56
2019-02-19T11:03:42.250Z,79.61
2019-02-19T11:04:46.576Z,79.56
2019-02-19T11:05:50.721Z,79.69
2019-02-19T11:06:54.920Z,79.80
2019-02-19T11:07:59.208Z,79.72
2019-02-19T11:09:03.468Z,79.94
2019-02-19T11:10:07.699Z,79.99
2019-02-19T11:11:11.826Z,79.83
2019-02-19T11:12:16.007Z,79.81
2019-02-19T11:13:20.316Z,79.75
2019-02-19T11:14:24.397Z,79.78
2019-02-19T11:15:28.771Z,79.69
2019-02-19T11:16:32.889Z,79.63
2019-02-19T11:17:37.192Z,79.55
2019-02-19T11:18:41.359Z,79.58
2019-02-19T11:19:45.627Z,79.34
2019-02-19T11:20:49.910Z,79.31
2019-02-19T11:21:54.042Z,79.36
2019-02-19T11:22:58.326Z,79.26
2019-02-19T11:24:02.582Z,79.03
2019-02-19T11:25:06.625Z,79.01
2019-02-19T11:26:10.878Z,79.08
2019-02-19T11:27:18.062Z,79.05
2019-02-19T11:28:21.414Z,78.98
2019-02-19T11:29:25.668Z,78.94
2019-02-19T11:30:29.880Z,78.90
2019-02-19T11:31:34.007Z,79.07
2019-02-19T11:32:38.298Z,79.17
2019-02-19T11:33:42.559Z,79.13
2019-02-19T11:34:46.770Z,78.81
2019-02-19T11:35:50.970Z,78.87
2019-02-19T11:36:55.222Z,78.72
2019-02-19T11:37:59.502Z,78.20
2019-02-19T11:39:03.793Z,78.31
2019-02-19T11:40:08.085Z,77.59
2019-02-19T11:41:12.410Z,77.78
2019-02-19T11:42:16.690Z,77.69
2019-02-19T11:43:20.932Z,77.71
2019-02-19T11:44:25.229Z,76.91
2019-02-19T11:45:29.620Z,77.01
2019-02-19T11:46:33.838Z,76.49
2019-02-19T11:47:38.106Z,76.66
2019-02-19T11:48:42.372Z,76.46
2019-02-19T11:49:46.660Z,76.48
2019-02-19T11:50:50.831Z,75.60
2019-02-19T11:51:55.127Z,75.57
2019-02-19T11:52:59.417Z,75.81
2019-02-19T11:54:03.659Z,76.10
2019-02-19T11:55:08.022Z,75.56
2019-02-19T11:56:12.234Z,75.13
2019-02-19T11:57:16.518Z,74.94
2019-02-19T11:58:20.794Z,74.13
2019-02-19T11:59:25.139Z,74.72
2019-02-19T12:00:29.312Z,74.35
2019-02-19T12:01:33.624Z,73.29
2019-02-19T12:02:37.917Z,72.52
2019-02-19T12:03:42.188Z,73.11
2019-02-19T12:04:46.371Z,73.23
2019-02-19T12:05:50.642Z,73.10
2019-02-19T12:06:54.995Z,72.38
2019-02-19T12:07:59.305Z,72.59
2019-02-19T12:09:03.620Z,72.74
2019-02-19T12:10:07.959Z,71.29
2019-02-19T12:11:12.270Z,72.18
2019-02-19T12:12:16.473Z,72.03
2019-02-19T12:13:20.679Z,71.88
2019-02-19T12:14:25.046Z,72.83
2019-02-19T12:15:35.007Z,72.21
2019-02-19T12:16:33.561Z,70.72
2019-02-19T12:17:37.787Z,70.63
2019-02-19T12:18:46.120Z,70.99
2019-02-19T12:19:46.361Z,69.26
2019-02-19T12:20:50.719Z,68.56
2019-02-19T12:21:54.912Z,71.02
2019-02-19T12:22:59.105Z,70.63
2019-02-19T12:24:03.511Z,69.07
2019-02-19T12:25:07.841Z,69.01
2019-02-19T12:26:12.120Z,69.11
2019-02-19T12:27:16.345Z,69.47
2019-02-19T12:28:20.719Z,70.19
2019-02-19T12:29:25.026Z,68.90
2019-02-19T12:30:29.438Z,68.76
2019-02-19T12:31:33.631Z,68.99
2019-02-19T12:32:37.976Z,70.16
2019-02-19T12:33:42.072Z,66.71
2019-02-19T12:34:46.474Z,68.67
2019-02-19T12:35:50.774Z,67.77
2019-02-19T12:36:55.072Z,68.46
2019-02-19T12:37:59.267Z,67.84
2019-02-19T12:39:03.621Z,67.95
2019-02-19T12:40:07.952Z,68.54
2019-02-19T12:41:12.218Z,68.62
2019-02-19T12:42:16.323Z,69.47
2019-02-19T12:43:20.603Z,69.26
2019-02-19T12:44:24.836Z,69.81
2019-02-19T12:45:29.207Z,70.07
2019-02-19T12:46:33.476Z,68.95
2019-02-19T12:47:37.672Z,69.39
2019-02-19T12:48:41.923Z,69.64
2019-02-19T12:49:46.238Z,69.73
2019-02-19T12:50:50.519Z,69.55
2019-02-19T12:51:55.592Z,69.89
2019-02-19T12:52:59.085Z,69.37
2019-02-19T12:54:03.316Z,69.30
2019-02-19T12:55:07.610Z,69.07
2019-02-19T12:56:11.766Z,69.60
2019-02-19T12:57:16.084Z,69.41
2019-02-19T12:58:20.365Z,69.90
2019-02-19T12:59:24.644Z,69.90
2019-02-19T13:00:28.855Z,69.59
2019-02-19T13:01:33.155Z,69.90
2019-02-19T13:02:37.311Z,70.04
2019-02-19T13:03:41.604Z,70.13
2019-02-19T13:04:45.894Z,70.50
2019-02-19T13:05:50.191Z,70.76
2019-02-19T13:06:54.434Z,70.83
2019-02-19T13:07:58.630Z,70.73
2019-02-19T13:09:02.951Z,70.86
2019-02-19T13:10:07.268Z,70.11
2019-02-19T13:11:11.579Z,70.38
2019-02-19T13:12:15.763Z,69.80
2019-02-19T13:13:20.079Z,70.14
2019-02-19T13:14:24.386Z,70.26
2019-02-19T13:15:28.652Z,70.68
2019-02-19T13:16:32.896Z,70.76
2019-02-19T13:17:37.216Z,70.46
2019-02-19T13:18:41.508Z,70.57
2019-02-19T13:19:45.655Z,70.66
2019-02-19T13:20:49.988Z,70.85
2019-02-19T13:21:54.271Z,70.74
2019-02-19T13:22:58.596Z,70.57
2019-02-19T13:24:02.888Z,70.70
2019-02-19T13:25:07.187Z,70.25
2019-02-19T13:26:11.481Z,70.59
2019-02-19T13:27:15.790Z,70.26
2019-02-19T13:28:20.111Z,70.67
2019-02-19T13:29:24.365Z,70.23
2019-02-19T13:30:28.707Z,70.47
2019-02-19T13:31:32.981Z,70.40
2019-02-19T13:32:37.298Z,70.55
2019-02-19T13:33:41.544Z,70.53
2019-02-19T13:34:45.814Z,70.34
2019-02-19T13:35:50.716Z,70.41
2019-02-19T13:36:54.363Z,70.61
2019-02-19T13:37:58.655Z,70.57
2019-02-19T13:39:02.909Z,70.70
2019-02-19T13:40:07.178Z,70.83
2019-02-19T13:41:11.493Z,70.96
2019-02-19T13:42:15.783Z,70.76
2019-02-19T13:43:20.036Z,70.74
2019-02-19T13:44:24.319Z,70.79
2019-02-19T13:45:28.593Z,70.85
2019-02-19T13:46:32.893Z,70.69